Terminal Aerodrome Forecast
Issued by NWS Upton, NY

Home | Current Version | Previous Version | Text Only | Print | Product List | Glossary On
Versions: 1 2 3 4 5 6 7 8 9 10 11 12 13 14 15 16 17 18 19 20 21 22 23 24 25 26 27 28 29 30 31 32 33 34 35 36 37 38 39 40 41 42 43 44 45 46 47 48 49 50
000
FTUS41 KOKX 231125
TAFEWR
TAF
KEWR 231125Z 2312/2418 27005KT P6SM FEW040 SCT250
     FM231600 24006KT P6SM FEW050 SCT250
     FM231900 17012KT P6SM FEW050 BKN250
     FM240200 21013KT P6SM FEW035 BKN050 BKN120 PROB30 2402/2408 5SM
      -SHRA
     FM240800 29011KT P6SM SCT050
     FM241400 29014G24KT P6SM FEW050=

USA.gov is the U.S. government's official web portal to all federal, state and local government web resources and services.